Turbat Weather



Turbat's Current Weather

Temprature 37.81o clear sky

clear sky

Rain: 0 %

Min Temprature37.81o
Max Temprature37.81o
Humidity42
Wind Speed9.15 m/h
Sun Rise06:00:56
Sun Set19:43:36
Current Time: 05-Jul-2020 18:10:20
Lat/Lon: 26, 63.04




Turbat's Geo Location



Turbat's Weather Forecast

Time Overall Temp Min Temp Max Temp Humidity Wind Speed Rain
05-Jul-2020 (Sun)
20:00:00 clear sky 39.140 33.610 39.140 37 4.79 m/h 0 %
23:00:00 clear sky 33.280 30.210 33.280 62 4.16 m/h 0 %
06-Jul-2020 (Mon)
02:00:00 clear sky 30.000 29.010 30.000 75 1.37 m/h 0 %
05:00:00 few clouds 28.540 28.410 28.540 82 1.35 m/h 0 %
08:00:00 clear sky 30.350 30.350 30.350 69 0.93 m/h 0 %
11:00:00 clear sky 41.140 41.140 41.140 10 2.3 m/h 0 %
14:00:00 clear sky 45.340 45.340 45.340 6 1.7 m/h 0 %
17:00:00 clear sky 46.660 46.660 46.660 6 2.9 m/h 0 %
20:00:00 clear sky 33.070 33.070 33.070 55 6.33 m/h 0 %
23:00:00 clear sky 30.500 30.500 30.500 69 3.61 m/h 0 %
07-Jul-2020 (Tue)
02:00:00 few clouds 29.010 29.010 29.010 76 1.13 m/h 0 %
05:00:00 broken clouds 28.310 28.310 28.310 80 2.77 m/h 0 %
08:00:00 broken clouds 29.820 29.820 29.820 68 0.77 m/h 0 %
11:00:00 scattered clouds 40.590 40.590 40.590 15 1.45 m/h 0 %
14:00:00 clear sky 47.590 47.590 47.590 5 3.88 m/h 0 %
17:00:00 scattered clouds 37.800 37.800 37.800 39 10.51 m/h 0 %
20:00:00 broken clouds 31.910 31.910 31.910 58 5.56 m/h 0 %
23:00:00 broken clouds 30.060 30.060 30.060 70 2.55 m/h 0 %
08-Jul-2020 (Wed)
02:00:00 overcast clouds 29.820 29.820 29.820 69 0.62 m/h 0 %
05:00:00 broken clouds 28.960 28.960 28.960 72 2.46 m/h 0 %
08:00:00 clear sky 31.000 31.000 31.000 59 3 m/h 0 %
11:00:00 scattered clouds 40.930 40.930 40.930 18 3.92 m/h 0 %
14:00:00 overcast clouds 42.200 42.200 42.200 17 2.16 m/h 0 %
17:00:00 overcast clouds 34.850 34.850 34.850 41 3.17 m/h 0 %
20:00:00 overcast clouds 33.910 33.910 33.910 46 6.75 m/h 0 %
23:00:00 overcast clouds 34.080 34.080 34.080 43 2.94 m/h 0 %
09-Jul-2020 (Thu)
02:00:00 overcast clouds 33.110 33.110 33.110 45 2.07 m/h 0 %
05:00:00 overcast clouds 31.580 31.580 31.580 50 0.66 m/h 0 %
08:00:00 broken clouds 34.670 34.670 34.670 40 2.43 m/h 0 %
11:00:00 scattered clouds 44.330 44.330 44.330 7 3.02 m/h 0 %
14:00:00 scattered clouds 48.380 48.380 48.380 5 5.78 m/h 0 %
17:00:00 scattered clouds 39.850 39.850 39.850 33 8.65 m/h 0 %
20:00:00 few clouds 34.530 34.530 34.530 49 4.93 m/h 0 %
23:00:00 few clouds 31.330 31.330 31.330 60 3.89 m/h 0 %
10-Jul-2020 (Fri)
02:00:00 scattered clouds 29.310 29.310 29.310 70 1.98 m/h 0 %
05:00:00 scattered clouds 28.070 28.070 28.070 77 1.43 m/h 0 %
08:00:00 clear sky 29.650 29.650 29.650 70 2.5 m/h 0 %
11:00:00 clear sky 36.590 36.590 36.590 40 4.35 m/h 0 %
14:00:00 clear sky 43.610 43.610 43.610 19 7.4 m/h 0 %
17:00:00 clear sky 40.500 40.500 40.500 32 10.67 m/h 0 %

Famous Cities (60)